Dana Christine II — WDH4875 — position and weather

sailwx.info

Track history (hours):
 
Tides and Currents Weather Stations Pressure Air Temp Water Temp Dewpoint Dewpoint Depression Visibility Wind Speed Wind Dir Waves Ship Positions

Dana Christine II

Owner: wark mr, kevin w, barnegat light, NJ. More information available from US FCC via Universal Licensing System and Coast Guard Vessel Documentation Center.

Last reported at 2018-Jun-18 17:10 UTC. Time now 2018-Jun-19 08:01 UTC.
Position N 39°45' W 074°07'.

Length 15 m.

Type: Fishing. MMSI: 367622290.

Date/timePositionNaut miles runAvg speedWind from/ knotsBaromVisibWave heightAir tempDewpointWater temp
2018-Jun-18 17:10N 39°45' W 074°07'0 0.3
2018-Jun-18 16:36N 39°45' W 074°07'1 5.7
2018-Jun-18 16:28N 39°46' W 074°06'511.0
2018-Jun-18 16:00N 39°41' W 074°05'4 5.8
2018-Jun-18 15:16N 39°37' W 074°08'1 2.0
2018-Jun-18 15:00N 39°38' W 074°08'1 1.3
2018-Jun-18 14:27N 39°37' W 074°08'1 0.4
2018-Jun-18 13:07N 39°37' W 074°07'0 0.2
2018-Jun-18 12:43N 39°37' W 074°07'0 0.3
2018-Jun-18 12:25N 39°37' W 074°07'0 0.3
2018-Jun-18 11:55N 39°37' W 074°07'0 0.4
2018-Jun-18 11:25N 39°37' W 074°07'0 0.9
2018-Jun-18 10:55N 39°36' W 074°07'0 0.4
2018-Jun-18 10:28N 39°37' W 074°08'0 1.0
2018-Jun-18 10:00N 39°37' W 074°07'611.6
2018-Jun-18 09:26N 39°43' W 074°05'2 0.2
2018-Jun-17 19:43N 39°45' W 074°07'0 0.1
2018-Jun-17 19:14N 39°45' W 074°07'0 0.0
2018-Jun-17 18:56N 39°45' W 074°07'0 0.0
2018-Jun-17 18:26N 39°45' W 074°07'2 5.3
2018-Jun-17 18:00N 39°44' W 074°04'610.8
2018-Jun-17 17:28N 39°38' W 074°06'2 2.0
2018-Jun-17 16:22N 39°37' W 074°08'0 0.1
2018-Jun-17 15:52N 39°37' W 074°08'0 0.2
2018-Jun-17 15:26N 39°37' W 074°08'0 0.2
2018-Jun-17 13:13N 39°37' W 074°07'3 0.6
2018-Jun-17 08:52N 39°39' W 074°06'513.1
2018-Jun-17 08:29N 39°44' W 074°05'2 0.1
2018-Jun-16 18:10N 39°45' W 074°07'0 0.1
2018-Jun-16 17:38N 39°45' W 074°07'0 0.0
2018-Jun-16 17:26N 39°45' W 074°07'0 0.0
2018-Jun-16 16:53N 39°45' W 074°07'1 4.0
2018-Jun-16 16:31N 39°45' W 074°05'8 4.1
2018-Jun-16 14:26N 39°37' W 074°06'1 0.8
2018-Jun-16 13:42N 39°37' W 074°06'0 0.1
2018-Jun-16 13:13N 39°37' W 074°06'0 0.2
2018-Jun-16 12:49N 39°37' W 074°06'0 0.2
2018-Jun-16 12:25N 39°37' W 074°06'0 0.4
2018-Jun-16 11:36N 39°37' W 074°06'0 0.3
2018-Jun-16 11:24N 39°37' W 074°06'0 0.3
2018-Jun-16 11:00N 39°37' W 074°06'1 1.2
2018-Jun-16 10:29N 39°37' W 074°07'2 3.2
2018-Jun-16 09:54N 39°38' W 074°09'7 0.4
2018-Jun-15 17:47N 39°45' W 074°07'0 0.0
2018-Jun-15 17:17N 39°45' W 074°07'1 4.0
2018-Jun-15 17:00N 39°46' W 074°06'611.6
2018-Jun-15 16:30N 39°40' W 074°06'4 6.6
2018-Jun-15 15:58N 39°36' W 074°05'0 0.7
2018-Jun-15 15:16N 39°37' W 074°06'0 0.7
2018-Jun-15 14:55N 39°37' W 074°06'0 0.3
2018-Jun-15 14:23N 39°37' W 074°05'0 0.4
2018-Jun-15 13:59N 39°36' W 074°06'1 0.6
2018-Jun-15 13:03N 39°37' W 074°05'0 0.4
2018-Jun-15 12:51N 39°37' W 074°05'0 1.0
2018-Jun-15 12:28N 39°37' W 074°06'1 1.1
2018-Jun-15 11:37N 39°38' W 074°06'0 0.3
2018-Jun-15 11:13N 39°38' W 074°06'0 0.3
2018-Jun-15 10:05N 39°37' W 074°05'0 0.6
2018-Jun-15 09:59N 39°37' W 074°05'8 0.5
2018-Jun-14 18:31N 39°45' W 074°07'0 3.8
2018-Jun-14 18:29N 39°45' W 074°07'0 0.2
2018-Jun-14 17:47N 39°45' W 074°07'0 0.0
2018-Jun-13 19:02N 39°45' W 074°07'0 0.0
2018-Jun-13 18:38N 39°45' W 074°07'0 0.0
2018-Jun-13 18:26N 39°45' W 074°07'0 0.0
2018-Jun-13 17:56N 39°45' W 074°07'0 0.0
2018-Jun-13 17:20N 39°45' W 074°07'0 0.0
2018-Jun-13 16:56N 39°45' W 074°07'0 0.0
2018-Jun-13 16:26N 39°45' W 074°07'0 0.0
2018-Jun-13 15:56N 39°45' W 074°07'0 0.0
2018-Jun-13 14:38N 39°45' W 074°07'0 0.0
2018-Jun-13 13:20N 39°45' W 074°07'0 0.0
2018-Jun-13 12:44N 39°45' W 074°07'0 0.0
2018-Jun-13 12:08N 39°45' W 074°07'0 0.0
2018-Jun-13 11:56N 39°45' W 074°07'0 0.0
2018-Jun-13 11:26N 39°45' W 074°07'0 0.0
2018-Jun-13 10:11N 39°45' W 074°07'0 0.0
2018-Jun-13 09:56N 39°45' W 074°07'8 0.3
2018-Jun-12 10:38N 39°37' W 074°07'0 0.2
2018-Jun-12 10:23N 39°37' W 074°06'1 1.8
2018-Jun-12 10:00N 39°37' W 074°06'612.9
2018-Jun-12 09:30N 39°44' W 074°05'2 0.1
2018-Jun-11 18:46N 39°45' W 074°07'0 0.0
2018-Jun-10 20:38N 39°45' W 074°07'0 0.0
2018-Jun-10 19:42N 39°45' W 074°07'1 4.8
2018-Jun-10 19:29N 39°46' W 074°06'9 1.0
2018-Jun-10 10:20N 39°37' W 074°06'815.2
2018-Jun-10 09:47N 39°45' W 074°05'2 4.1
2018-Jun-10 09:25N 39°46' W 074°07'1 0.0
2018-Jun-08 21:16N 39°45' W 074°07'0 0.1
2018-Jun-08 20:43N 39°45' W 074°07'0 0.0
2018-Jun-08 20:25N 39°45' W 074°07'1 1.8
2018-Jun-08 19:59N 39°46' W 074°07'511.0
2018-Jun-08 19:30N 39°41' W 074°04'  
Track history (hours):
 
Tides and Currents Weather Stations Pressure Air Temp Water Temp Dewpoint Dewpoint Depression Visibility Wind Speed Wind Dir Waves Ship Positions

Dana Christine II

Owner: wark mr, kevin w, barnegat light, NJ. More information available from US FCC via Universal Licensing System and Coast Guard Vessel Documentation Center.

Last reported at 2018-Jun-18 17:10 UTC. Time now 2018-Jun-19 08:01 UTC.
Position N 39°45' W 074°07'.

Length 15 m.

Type: Fishing. MMSI: 367622290.

Date/timePositionNaut miles runAvg speedWind from/ knotsBaromVisibWave heightAir tempDewpointWater temp
2018-Jun-18 17:10N 39°45' W 074°07'0 0.3
2018-Jun-18 16:36N 39°45' W 074°07'1 5.7
2018-Jun-18 16:28N 39°46' W 074°06'511.0
2018-Jun-18 16:00N 39°41' W 074°05'4 5.8
2018-Jun-18 15:16N 39°37' W 074°08'1 2.0
2018-Jun-18 15:00N 39°38' W 074°08'1 1.3
2018-Jun-18 14:27N 39°37' W 074°08'1 0.4
2018-Jun-18 13:07N 39°37' W 074°07'0 0.2
2018-Jun-18 12:43N 39°37' W 074°07'0 0.3
2018-Jun-18 12:25N 39°37' W 074°07'0 0.3
2018-Jun-18 11:55N 39°37' W 074°07'0 0.4
2018-Jun-18 11:25N 39°37' W 074°07'0 0.9
2018-Jun-18 10:55N 39°36' W 074°07'0 0.4
2018-Jun-18 10:28N 39°37' W 074°08'0 1.0
2018-Jun-18 10:00N 39°37' W 074°07'611.6
2018-Jun-18 09:26N 39°43' W 074°05'2 0.2
2018-Jun-17 19:43N 39°45' W 074°07'0 0.1
2018-Jun-17 19:14N 39°45' W 074°07'0 0.0
2018-Jun-17 18:56N 39°45' W 074°07'0 0.0
2018-Jun-17 18:26N 39°45' W 074°07'2 5.3
2018-Jun-17 18:00N 39°44' W 074°04'610.8
2018-Jun-17 17:28N 39°38' W 074°06'2 2.0
2018-Jun-17 16:22N 39°37' W 074°08'0 0.1
2018-Jun-17 15:52N 39°37' W 074°08'0 0.2
2018-Jun-17 15:26N 39°37' W 074°08'0 0.2
2018-Jun-17 13:13N 39°37' W 074°07'3 0.6
2018-Jun-17 08:52N 39°39' W 074°06'513.1
2018-Jun-17 08:29N 39°44' W 074°05'2 0.1
2018-Jun-16 18:10N 39°45' W 074°07'0 0.1
2018-Jun-16 17:38N 39°45' W 074°07'0 0.0
2018-Jun-16 17:26N 39°45' W 074°07'0 0.0
2018-Jun-16 16:53N 39°45' W 074°07'1 4.0
2018-Jun-16 16:31N 39°45' W 074°05'8 4.1
2018-Jun-16 14:26N 39°37' W 074°06'1 0.8
2018-Jun-16 13:42N 39°37' W 074°06'0 0.1
2018-Jun-16 13:13N 39°37' W 074°06'0 0.2
2018-Jun-16 12:49N 39°37' W 074°06'0 0.2
2018-Jun-16 12:25N 39°37' W 074°06'0 0.4
2018-Jun-16 11:36N 39°37' W 074°06'0 0.3
2018-Jun-16 11:24N 39°37' W 074°06'0 0.3
2018-Jun-16 11:00N 39°37' W 074°06'1 1.2
2018-Jun-16 10:29N 39°37' W 074°07'2 3.2
2018-Jun-16 09:54N 39°38' W 074°09'7 0.4
2018-Jun-15 17:47N 39°45' W 074°07'0 0.0
2018-Jun-15 17:17N 39°45' W 074°07'1 4.0
2018-Jun-15 17:00N 39°46' W 074°06'611.6
2018-Jun-15 16:30N 39°40' W 074°06'4 6.6
2018-Jun-15 15:58N 39°36' W 074°05'0 0.7
2018-Jun-15 15:16N 39°37' W 074°06'0 0.7
2018-Jun-15 14:55N 39°37' W 074°06'0 0.3
2018-Jun-15 14:23N 39°37' W 074°05'0 0.4
2018-Jun-15 13:59N 39°36' W 074°06'1 0.6
2018-Jun-15 13:03N 39°37' W 074°05'0 0.4
2018-Jun-15 12:51N 39°37' W 074°05'0 1.0
2018-Jun-15 12:28N 39°37' W 074°06'1 1.1
2018-Jun-15 11:37N 39°38' W 074°06'0 0.3
2018-Jun-15 11:13N 39°38' W 074°06'0 0.3
2018-Jun-15 10:05N 39°37' W 074°05'0 0.6
2018-Jun-15 09:59N 39°37' W 074°05'8 0.5
2018-Jun-14 18:31N 39°45' W 074°07'0 3.8
2018-Jun-14 18:29N 39°45' W 074°07'0 0.2
2018-Jun-14 17:47N 39°45' W 074°07'0 0.0
2018-Jun-13 19:02N 39°45' W 074°07'0 0.0
2018-Jun-13 18:38N 39°45' W 074°07'0 0.0
2018-Jun-13 18:26N 39°45' W 074°07'0 0.0
2018-Jun-13 17:56N 39°45' W 074°07'0 0.0
2018-Jun-13 17:20N 39°45' W 074°07'0 0.0
2018-Jun-13 16:56N 39°45' W 074°07'0 0.0
2018-Jun-13 16:26N 39°45' W 074°07'0 0.0
2018-Jun-13 15:56N 39°45' W 074°07'0 0.0
2018-Jun-13 14:38N 39°45' W 074°07'0 0.0
2018-Jun-13 13:20N 39°45' W 074°07'0 0.0
2018-Jun-13 12:44N 39°45' W 074°07'0 0.0
2018-Jun-13 12:08N 39°45' W 074°07'0 0.0
2018-Jun-13 11:56N 39°45' W 074°07'0 0.0
2018-Jun-13 11:26N 39°45' W 074°07'0 0.0
2018-Jun-13 10:11N 39°45' W 074°07'0 0.0
2018-Jun-13 09:56N 39°45' W 074°07'8 0.3
2018-Jun-12 10:38N 39°37' W 074°07'0 0.2
2018-Jun-12 10:23N 39°37' W 074°06'1 1.8
2018-Jun-12 10:00N 39°37' W 074°06'612.9
2018-Jun-12 09:30N 39°44' W 074°05'2 0.1
2018-Jun-11 18:46N 39°45' W 074°07'0 0.0
2018-Jun-10 20:38N 39°45' W 074°07'0 0.0
2018-Jun-10 19:42N 39°45' W 074°07'1 4.8
2018-Jun-10 19:29N 39°46' W 074°06'9 1.0
2018-Jun-10 10:20N 39°37' W 074°06'815.2
2018-Jun-10 09:47N 39°45' W 074°05'2 4.1
2018-Jun-10 09:25N 39°46' W 074°07'1 0.0
2018-Jun-08 21:16N 39°45' W 074°07'0 0.1
2018-Jun-08 20:43N 39°45' W 074°07'0 0.0
2018-Jun-08 20:25N 39°45' W 074°07'1 1.8
2018-Jun-08 19:59N 39°46' W 074°07'511.0
2018-Jun-08 19:30N 39°41' W 074°04'  

Dump ship's entire track history